This is the latest recevied weather packets stored in our database for station/object 7M1JBF-11. If no packets are shown the sender has not sent any weather packets the latest 10 day(s).
| Time | Temp. | Humidity | Pressure | Rain* | Wind** | Luminosity | Snow |
|---|---|---|---|---|---|---|---|
| 1777440479 | 18.33° C | 100% | 1010.9 hPa | 0 mm | - | - | - |
| 1777439876 | 18.33° C | 100% | 1011.1 hPa | 0 mm | - | - | - |
| 1777439278 | 18.33° C | 100% | 1011.1 hPa | 0 mm | - | - | - |
| 1777438673 | 18.89° C | 100% | 1011.2 hPa | 0 mm | - | - | - |
| 1777438072 | 18.89° C | 100% | 1011.3 hPa | 0 mm | - | - | - |
| 1777437470 | 18.89° C | 100% | 1011.1 hPa | 0 mm | - | - | - |
| 1777436869 | 18.89° C | 100% | 1010.9 hPa | 0 mm | - | - | - |
| 1777436267 | 18.89° C | 100% | 1011 hPa | 0 mm | - | - | - |
| 1777435675 | 19.44° C | 100% | 1011 hPa | 0 mm | - | - | - |
| 1777435065 | 19.44° C | 100% | 1010.8 hPa | 0 mm | - | - | - |
| 1777434463 | 19.44° C | 100% | 1010.9 hPa | 0 mm | - | - | - |
| 1777433862 | 20° C | 100% | 1010.8 hPa | 0 mm | - | - | - |
| 1777433261 | 20° C | 100% | 1010.8 hPa | 0 mm | - | - | - |
| 1777432659 | 20° C | 100% | 1010.8 hPa | 0 mm | - | - | - |
| 1777432058 | 20° C | 100% | 1010.8 hPa | 0 mm | - | - | - |
| 1777431457 | 20° C | 100% | 1010.6 hPa | 0 mm | - | - | - |
| 1777430254 | 20° C | 100% | 1010.6 hPa | 0 mm | - | - | - |
| 1777428450 | 20.56° C | 100% | 1011 hPa | 0 mm | - | - | - |
| 1777426646 | 20° C | 100% | 1011 hPa | 0 mm | - | - | - |
| 1777424842 | 20° C | 100% | 1011.2 hPa | 0 mm | - | - | - |
| 1777423639 | 20° C | 100% | 1010.9 hPa | 0 mm | - | - | - |
| 1777422436 | 19.44° C | 100% | 1010.9 hPa | 0 mm | - | - | - |
| 1777421835 | 19.44° C | 100% | 1010.5 hPa | 0 mm | - | - | - |
| 1777420031 | 18.33° C | 100% | 1010.6 hPa | 0 mm | - | - | - |
| 1777408607 | 17.22° C | 100% | 1008.8 hPa | 0 mm | - | - | - |
* Rain since midnight (hover to see other rain measurements)
** Current wind speed in m/s (hover to see current wind gust speed)